Time;durP1;ratioP1;P1;durP2;ratioP2;P2;SDS_P1;SDS_P2;PMS_P1;PMS_P2;Temp;Humidity;BMP_temperature;BMP_pressure;BME280_temperature;BME280_humidity;BME280_pressure;Samples;Min_cycle;Max_cycle;Signal;HPM_P1;HPM_P2
2023/06/10 00:02:11;;;;;;;;;;;17.30;98.40;;;;;;5065978;28;19928;-81
2023/06/10 00:04:37;;;;;;;;;;;17.30;98.20;;;;;;5063687;28;19929;-81
2023/06/10 00:07:03;;;;;;;;;;;17.20;98.90;;;;;;5065262;28;19924;-81
2023/06/10 00:09:29;;;;;;;;;;;17.20;98.80;;;;;;5065687;28;20027;-80
2023/06/10 00:11:55;;;;;;;;;;;17.10;98.30;;;;;;5067068;28;20011;-81
2023/06/10 00:14:20;;;;;;;;;;;17.10;98.10;;;;;;5061291;28;19929;-88
2023/06/10 00:16:46;;;;;;;;;;;17.10;98.60;;;;;;5068954;28;19924;-82
2023/06/10 00:19:13;;;;;;;;;;;17.00;98.90;;;;;;5067567;28;20224;-85
2023/06/10 00:21:40;;;;;;;;;;;17.00;99.10;;;;;;5067123;28;19947;-81
2023/06/10 00:24:06;;;;;;;;;;;17.00;98.80;;;;;;5067958;28;20015;-81
2023/06/10 00:26:32;;;;;;;;;;;17.00;99.80;;;;;;5068051;28;19944;-85
2023/06/10 00:28:58;;;;;;;;;;;16.90;99.20;;;;;;5065888;28;19936;-91
2023/06/10 00:31:26;;;;;;;;;;;16.90;99.40;;;;;;5067117;28;19932;-81
2023/06/10 00:33:51;;;;;;;;;;;16.90;99.80;;;;;;5059090;28;19928;-89
2023/06/10 00:36:17;;;;;;;;;;;16.80;99.70;;;;;;5066497;28;19931;-81
2023/06/10 00:38:43;;;;;;;;;;;16.80;99.90;;;;;;5064623;28;19932;-82
2023/06/10 00:41:08;;;;;;;;;;;16.70;99.90;;;;;;5067384;28;20047;-83
2023/06/10 00:43:34;;;;;;;;;;;16.70;99.90;;;;;;5068401;28;19932;-80
2023/06/10 00:46:00;;;;;;;;;;;16.70;99.90;;;;;;5064699;28;20394;-83
2023/06/10 00:48:26;;;;;;;;;;;16.70;99.90;;;;;;5065506;28;19966;-85
2023/06/10 00:50:51;;;;;;;;;;;16.70;99.90;;;;;;5068346;28;19925;-82
2023/06/10 00:53:17;;;;;;;;;;;16.60;99.90;;;;;;5068049;28;19925;-81
2023/06/10 00:55:43;;;;;;;;;;;16.70;99.90;;;;;;5071847;28;20391;-81
2023/06/10 00:58:09;;;;;;;;;;;16.60;99.90;;;;;;5065709;28;19929;-82
2023/06/10 01:00:35;;;;;;;;;;;16.60;99.90;;;;;;5066596;28;19924;-81
2023/06/10 01:03:00;;;;;;;;;;;16.60;99.90;;;;;;5066674;28;20015;-81
2023/06/10 01:05:27;;;;;;;;;;;16.60;99.90;;;;;;5066786;28;19929;-81
2023/06/10 01:07:59;;;;;;;;;;;16.60;99.90;;;;;;5067476;28;19972;-82
2023/06/10 01:10:30;;;;;;;;;;;16.50;99.90;;;;;;5064569;28;19943;-83
2023/06/10 01:12:59;;;;;;;;;;;16.50;99.90;;;;;;5066463;28;19986;-80
2023/06/10 01:15:25;;;;;;;;;;;16.50;99.90;;;;;;5067967;28;19932;-81
2023/06/10 01:18:04;;;;;;;;;;;16.40;99.90;;;;;;5066339;28;19925;-81
2023/06/10 01:20:32;;;;;;;;;;;16.40;99.90;;;;;;5066499;28;19935;-82
2023/06/10 01:23:02;;;;;;;;;;;16.40;99.90;;;;;;5066860;28;19932;-81
2023/06/10 01:25:28;;;;;;;;;;;16.40;99.90;;;;;;5064574;28;20310;-80
2023/06/10 01:28:14;;;;;;;;;;;16.40;99.90;;;;;;5066673;28;19928;-81
2023/06/10 01:30:45;;;;;;;;;;;16.30;99.90;;;;;;5065029;28;20364;-81
2023/06/10 01:33:12;;;;;;;;;;;16.30;99.90;;;;;;5066836;28;20654;-84
2023/06/10 01:35:39;;;;;;;;;;;16.30;99.90;;;;;;5063899;28;19924;-82
2023/06/10 01:38:05;;;;;;;;;;;16.20;99.90;;;;;;5066915;28;19929;-83
2023/06/10 01:40:30;;;;;;;;;;;16.20;99.90;;;;;;5067861;28;19969;-81
2023/06/10 01:42:56;;;;;;;;;;;16.20;99.90;;;;;;5064415;28;19933;-89
2023/06/10 01:45:22;;;;;;;;;;;16.20;99.90;;;;;;5064929;28;19925;-86
2023/06/10 01:47:47;;;;;;;;;;;16.10;99.90;;;;;;5064830;28;19924;-80
2023/06/10 01:50:13;;;;;;;;;;;16.10;99.90;;;;;;5069800;28;19925;-81
2023/06/10 01:52:38;;;;;;;;;;;16.10;99.90;;;;;;5067864;28;19925;-83
2023/06/10 01:55:04;;;;;;;;;;;16.00;99.90;;;;;;5067311;28;20034;-80
2023/06/10 01:57:30;;;;;;;;;;;16.00;99.90;;;;;;5070910;28;19980;-84
2023/06/10 01:59:55;;;;;;;;;;;16.00;99.90;;;;;;5070904;28;19928;-80
2023/06/10 02:02:22;;;;;;;;;;;16.00;99.90;;;;;;5069910;28;19924;-81
2023/06/10 02:04:47;;;;;;;;;;;15.90;99.90;;;;;;5050706;28;19931;-81
2023/06/10 02:07:13;;;;;;;;;;;15.90;99.90;;;;;;5068192;28;19932;-81
2023/06/10 02:09:38;;;;;;;;;;;15.90;99.90;;;;;;5070747;28;19947;-82
2023/06/10 02:12:04;;;;;;;;;;;15.80;99.90;;;;;;5068608;28;19970;-81
2023/06/10 02:14:32;;;;;;;;;;;15.80;99.90;;;;;;5074687;28;20373;-81
2023/06/10 02:16:57;;;;;;;;;;;15.80;99.90;;;;;;5064193;28;20384;-82
2023/06/10 02:19:25;;;;;;;;;;;15.80;99.90;;;;;;5066475;28;19932;-81
2023/06/10 02:21:50;;;;;;;;;;;15.70;99.90;;;;;;5063818;28;20458;-82
2023/06/10 02:24:16;;;;;;;;;;;15.70;99.90;;;;;;5064062;28;19972;-81
2023/06/10 02:26:41;;;;;;;;;;;15.70;99.90;;;;;;5065481;28;19976;-81
2023/06/10 02:29:07;;;;;;;;;;;15.60;99.90;;;;;;5053972;28;19931;-89
2023/06/10 02:31:35;;;;;;;;;;;15.60;99.90;;;;;;5073060;28;20375;-80
2023/06/10 02:34:01;;;;;;;;;;;15.50;99.90;;;;;;5066648;28;19928;-83
2023/06/10 02:36:27;;;;;;;;;;;15.50;99.90;;;;;;5058455;28;20383;-81
2023/06/10 02:38:53;;;;;;;;;;;15.50;99.90;;;;;;5066005;28;19945;-81
2023/06/10 02:41:19;;;;;;;;;;;15.50;99.90;;;;;;5066468;28;21450;-81
2023/06/10 02:43:44;;;;;;;;;;;15.40;99.90;;;;;;5058476;28;20299;-82
2023/06/10 02:46:10;;;;;;;;;;;15.40;99.90;;;;;;5075151;28;19925;-82
2023/06/10 02:48:43;;;;;;;;;;;15.40;99.90;;;;;;5074037;28;19925;-86
2023/06/10 02:51:09;;;;;;;;;;;15.30;99.90;;;;;;5060556;28;19935;-82
2023/06/10 02:53:35;;;;;;;;;;;15.30;99.90;;;;;;5070594;28;19931;-82
2023/06/10 02:56:01;;;;;;;;;;;15.30;99.90;;;;;;5071431;28;19924;-82
2023/06/10 02:58:27;;;;;;;;;;;15.30;99.90;;;;;;5059865;28;19968;-82
2023/06/10 03:00:53;;;;;;;;;;;15.30;99.90;;;;;;5070336;28;20378;-82
2023/06/10 03:03:18;;;;;;;;;;;15.20;99.90;;;;;;5074177;28;19935;-82
2023/06/10 03:05:44;;;;;;;;;;;15.20;99.90;;;;;;5073221;28;19971;-81
2023/06/10 03:08:09;;;;;;;;;;;15.10;99.90;;;;;;5077475;28;19924;-80
2023/06/10 03:10:35;;;;;;;;;;;15.10;99.90;;;;;;5074362;28;19924;-80
2023/06/10 03:13:01;;;;;;;;;;;15.00;99.90;;;;;;5074811;28;20007;-81
2023/06/10 03:15:28;;;;;;;;;;;15.00;99.90;;;;;;5074677;28;19933;-80
2023/06/10 03:17:54;;;;;;;;;;;15.00;99.90;;;;;;5039962;28;19928;-80
2023/06/10 03:20:21;;;;;;;;;;;15.00;99.90;;;;;;5073731;28;19924;-81
2023/06/10 03:22:47;;;;;;;;;;;15.00;99.90;;;;;;5074459;28;19928;-81
2023/06/10 03:25:13;;;;;;;;;;;15.00;99.90;;;;;;5038379;28;19944;-80
2023/06/10 03:27:39;;;;;;;;;;;15.00;99.90;;;;;;5068377;28;19924;-81
2023/06/10 03:30:05;;;;;;;;;;;14.90;99.90;;;;;;5063913;28;19970;-82
2023/06/10 03:32:31;;;;;;;;;;;14.90;99.90;;;;;;5057118;28;20059;-81
2023/06/10 03:34:57;;;;;;;;;;;14.90;99.90;;;;;;5060568;28;19925;-81
2023/06/10 03:37:22;;;;;;;;;;;14.90;99.90;;;;;;5051574;28;19939;-82
2023/06/10 03:39:48;;;;;;;;;;;14.90;99.90;;;;;;5069689;28;20011;-81
2023/06/10 03:42:14;;;;;;;;;;;14.90;99.90;;;;;;5071803;28;19998;-85
2023/06/10 03:44:40;;;;;;;;;;;14.90;99.90;;;;;;5067034;28;19925;-81
2023/06/10 03:47:05;;;;;;;;;;;14.90;99.90;;;;;;5072757;28;20038;-82
2023/06/10 03:49:31;;;;;;;;;;;14.90;99.90;;;;;;5067055;28;19924;-85
2023/06/10 03:51:56;;;;;;;;;;;14.90;99.90;;;;;;5062650;28;19978;-81
2023/06/10 03:54:22;;;;;;;;;;;14.90;99.90;;;;;;5065558;28;19974;-81
2023/06/10 03:56:48;;;;;;;;;;;14.90;99.90;;;;;;5061872;28;19983;-81
2023/06/10 03:59:13;;;;;;;;;;;14.90;99.90;;;;;;5066766;28;19951;-81
2023/06/10 04:01:40;;;;;;;;;;;14.90;99.90;;;;;;5068957;28;19928;-81
2023/06/10 04:04:06;;;;;;;;;;;14.90;99.90;;;;;;5072999;28;20019;-81
2023/06/10 04:06:32;;;;;;;;;;;14.90;99.90;;;;;;5067931;28;20039;-82
2023/06/10 04:08:58;;;;;;;;;;;14.90;99.90;;;;;;5072786;28;19946;-80
2023/06/10 04:11:24;;;;;;;;;;;15.00;99.90;;;;;;5067680;28;19928;-80
2023/06/10 04:13:50;;;;;;;;;;;14.90;99.90;;;;;;5071086;28;20347;-81
2023/06/10 04:16:16;;;;;;;;;;;15.00;99.90;;;;;;5066223;28;19987;-80
2023/06/10 04:18:42;;;;;;;;;;;15.00;99.90;;;;;;5071061;28;20035;-82
2023/06/10 04:21:08;;;;;;;;;;;15.00;99.90;;;;;;5070303;28;19925;-81
2023/06/10 04:23:35;;;;;;;;;;;15.00;99.90;;;;;;5070956;28;20379;-81
2023/06/10 04:26:00;;;;;;;;;;;15.10;99.90;;;;;;5062111;28;19932;-81
2023/06/10 04:28:26;;;;;;;;;;;15.00;99.90;;;;;;5073047;28;20329;-81
2023/06/10 04:30:52;;;;;;;;;;;15.10;99.90;;;;;;5065421;28;19939;-81
2023/06/10 04:33:17;;;;;;;;;;;15.10;99.90;;;;;;5069529;28;19924;-81
2023/06/10 04:35:43;;;;;;;;;;;15.10;99.90;;;;;;5050944;28;19982;-84
2023/06/10 04:38:08;;;;;;;;;;;15.20;99.90;;;;;;5056101;28;20283;-81
2023/06/10 04:40:34;;;;;;;;;;;15.40;99.90;;;;;;5067540;28;19935;-82
2023/06/10 04:43:03;;;;;;;;;;;15.40;99.90;;;;;;5071024;28;20004;-82
2023/06/10 04:45:29;;;;;;;;;;;15.50;99.90;;;;;;5059423;28;19939;-81
2023/06/10 04:47:55;;;;;;;;;;;15.60;99.90;;;;;;5070533;28;19928;-81
2023/06/10 04:50:21;;;;;;;;;;;15.90;99.90;;;;;;5057026;28;19925;-82
2023/06/10 04:55:58;;;;;;;;;;;16.30;99.90;;;;;;5029912;28;19935;-81
2023/06/10 04:58:23;;;;;;;;;;;16.30;99.90;;;;;;5073535;28;20499;-82
2023/06/10 05:00:49;;;;;;;;;;;16.30;99.90;;;;;;5072918;28;20279;-82
2023/06/10 05:03:15;;;;;;;;;;;16.50;99.90;;;;;;5073154;28;19932;-83
2023/06/10 05:05:41;;;;;;;;;;;16.70;99.90;;;;;;5074782;28;19932;-83
2023/06/10 05:08:06;;;;;;;;;;;16.70;99.90;;;;;;5074064;28;19925;-82
2023/06/10 05:10:34;;;;;;;;;;;16.70;99.90;;;;;;5073965;28;19925;-82
2023/06/10 05:12:59;;;;;;;;;;;17.00;99.90;;;;;;5074604;28;20371;-82
2023/06/10 05:15:25;;;;;;;;;;;17.50;99.90;;;;;;5073045;28;19967;-83
2023/06/10 05:17:51;;;;;;;;;;;18.00;99.90;;;;;;5074011;28;19924;-83
2023/06/10 05:20:18;;;;;;;;;;;18.60;99.90;;;;;;5073954;28;19928;-83
2023/06/10 05:22:44;;;;;;;;;;;19.00;99.90;;;;;;5075195;28;22298;-82
2023/06/10 05:25:10;;;;;;;;;;;19.40;99.90;;;;;;5077408;28;19931;-83
2023/06/10 05:27:35;;;;;;;;;;;19.70;99.90;;;;;;5078023;28;20011;-83
2023/06/10 05:30:02;;;;;;;;;;;20.00;99.90;;;;;;5076980;28;19925;-82
2023/06/10 05:32:27;;;;;;;;;;;20.10;99.90;;;;;;5077618;28;20378;-84
2023/06/10 05:34:53;;;;;;;;;;;20.30;99.90;;;;;;5077244;28;19932;-83
2023/06/10 05:37:19;;;;;;;;;;;20.50;99.90;;;;;;5077803;28;19935;-84
2023/06/10 05:39:44;;;;;;;;;;;20.60;99.90;;;;;;5076769;28;19928;-83
2023/06/10 05:42:10;;;;;;;;;;;20.80;99.90;;;;;;5077662;28;19925;-83
2023/06/10 05:44:36;;;;;;;;;;;21.00;99.90;;;;;;5078091;28;19940;-83
2023/06/10 05:47:02;;;;;;;;;;;21.20;99.90;;;;;;5076536;28;19924;-83
2023/06/10 05:49:28;;;;;;;;;;;21.40;99.90;;;;;;5076367;28;19924;-83
2023/06/10 05:51:53;;;;;;;;;;;21.40;99.90;;;;;;5076613;28;19925;-83
2023/06/10 05:54:19;;;;;;;;;;;21.40;99.90;;;;;;5076070;28;19925;-84
2023/06/10 05:56:45;;;;;;;;;;;21.70;99.90;;;;;;5076444;28;19932;-83
2023/06/10 05:59:10;;;;;;;;;;;22.00;99.90;;;;;;5077240;28;19924;-83
2023/06/10 06:01:36;;;;;;;;;;;22.20;99.90;;;;;;5077333;28;19971;-85
2023/06/10 06:04:01;;;;;;;;;;;22.60;99.90;;;;;;5077197;28;19924;-83
2023/06/10 06:06:27;;;;;;;;;;;22.80;98.90;;;;;;5059340;28;19931;-83
2023/06/10 06:08:53;;;;;;;;;;;23.10;99.50;;;;;;5077444;28;19975;-83
2023/06/10 06:11:18;;;;;;;;;;;23.30;98.70;;;;;;5076852;28;19928;-86
2023/06/10 06:13:44;;;;;;;;;;;23.40;96.20;;;;;;5077088;28;19928;-83
2023/06/10 06:16:09;;;;;;;;;;;23.30;96.70;;;;;;5077054;28;20016;-83
2023/06/10 06:18:35;;;;;;;;;;;23.30;96.90;;;;;;5076069;28;19924;-84
2023/06/10 06:21:01;;;;;;;;;;;23.40;96.70;;;;;;5075951;28;19974;-83
2023/06/10 06:23:26;;;;;;;;;;;23.40;96.80;;;;;;5077273;28;19924;-83
2023/06/10 06:25:52;;;;;;;;;;;23.50;96.50;;;;;;5076761;28;19929;-82
2023/06/10 06:28:18;;;;;;;;;;;23.70;95.80;;;;;;5075550;28;20011;-82
2023/06/10 06:30:44;;;;;;;;;;;23.80;94.30;;;;;;5076725;28;20015;-82
2023/06/10 06:33:10;;;;;;;;;;;23.80;94.30;;;;;;5076709;28;20021;-82
2023/06/10 06:35:35;;;;;;;;;;;23.70;93.70;;;;;;5075586;28;19972;-87
2023/06/10 06:38:01;;;;;;;;;;;23.80;94.10;;;;;;5076898;28;19932;-82
2023/06/10 06:40:26;;;;;;;;;;;24.00;93.10;;;;;;5076759;28;19924;-86
2023/06/10 06:42:52;;;;;;;;;;;24.10;94.50;;;;;;5076533;28;19970;-82
2023/06/10 06:45:18;;;;;;;;;;;24.20;93.90;;;;;;5076307;28;19947;-83
2023/06/10 06:47:43;;;;;;;;;;;24.50;93.20;;;;;;5076338;28;19931;-83
2023/06/10 06:50:09;;;;;;;;;;;24.80;92.30;;;;;;5075511;28;19931;-83
2023/06/10 06:52:35;;;;;;;;;;;25.10;92.60;;;;;;5076652;28;19924;-84
2023/06/10 06:55:00;;;;;;;;;;;25.40;92.40;;;;;;5076396;28;19925;-82
2023/06/10 06:57:26;;;;;;;;;;;25.60;91.40;;;;;;5076150;28;19971;-82
2023/06/10 06:59:52;;;;;;;;;;;25.50;90.10;;;;;;5076525;28;20359;-83
2023/06/10 07:02:18;;;;;;;;;;;25.70;90.30;;;;;;5075249;28;19924;-84
2023/06/10 07:04:45;;;;;;;;;;;25.90;86.00;;;;;;5076084;28;19924;-83
2023/06/10 07:07:11;;;;;;;;;;;25.90;87.80;;;;;;5075197;28;20050;-83
2023/06/10 07:09:37;;;;;;;;;;;25.90;88.40;;;;;;5058487;28;19997;-84
2023/06/10 07:12:03;;;;;;;;;;;26.00;88.30;;;;;;5075346;28;20283;-84
2023/06/10 07:14:28;;;;;;;;;;;26.00;84.80;;;;;;5077272;28;19924;-82
2023/06/10 07:16:54;;;;;;;;;;;26.00;85.50;;;;;;5078598;28;19928;-82
2023/06/10 07:19:19;;;;;;;;;;;26.00;81.80;;;;;;5075426;28;19932;-85
2023/06/10 07:21:45;;;;;;;;;;;26.10;82.60;;;;;;5075728;28;19931;-84
2023/06/10 07:24:11;;;;;;;;;;;26.10;85.70;;;;;;5075683;28;19924;-82
2023/06/10 07:26:36;;;;;;;;;;;26.20;84.80;;;;;;5075782;28;19954;-85
2023/06/10 07:29:02;;;;;;;;;;;26.30;84.90;;;;;;5075750;28;19924;-83
2023/06/10 07:31:28;;;;;;;;;;;26.50;81.00;;;;;;5075671;28;19972;-83
2023/06/10 07:33:53;;;;;;;;;;;26.60;79.10;;;;;;5074688;28;19967;-85
2023/06/10 07:36:19;;;;;;;;;;;26.70;82.50;;;;;;5075534;28;19969;-83
2023/06/10 07:38:45;;;;;;;;;;;26.80;80.50;;;;;;5075730;28;19935;-83
2023/06/10 07:41:11;;;;;;;;;;;26.80;79.10;;;;;;5058102;28;19924;-82
2023/06/10 07:43:36;;;;;;;;;;;26.80;79.50;;;;;;5076070;28;19928;-82
2023/06/10 07:46:02;;;;;;;;;;;26.70;80.70;;;;;;5058014;28;20355;-82
2023/06/10 07:48:27;;;;;;;;;;;26.80;81.30;;;;;;5075348;28;20282;-83
2023/06/10 07:50:53;;;;;;;;;;;26.80;76.80;;;;;;5075312;28;19977;-82
2023/06/10 07:53:19;;;;;;;;;;;26.70;78.40;;;;;;5074007;28;19928;-82
2023/06/10 07:55:44;;;;;;;;;;;26.70;80.10;;;;;;5074220;28;20329;-81
2023/06/10 07:58:10;;;;;;;;;;;26.70;80.10;;;;;;5075137;28;19931;-83
2023/06/10 08:00:35;;;;;;;;;;;26.70;79.00;;;;;;5057605;28;19967;-83
2023/06/10 08:03:01;;;;;;;;;;;26.90;78.50;;;;;;5075439;28;19931;-85
2023/06/10 08:05:27;;;;;;;;;;;27.10;78.70;;;;;;5073901;28;19965;-83
2023/06/10 08:07:52;;;;;;;;;;;27.10;74.20;;;;;;5074616;28;20279;-86
2023/06/10 08:10:18;;;;;;;;;;;27.20;71.70;;;;;;5073561;28;20019;-83
2023/06/10 08:12:43;;;;;;;;;;;27.30;75.00;;;;;;5075556;28;19924;-83
2023/06/10 08:15:09;;;;;;;;;;;27.30;72.80;;;;;;5074761;28;20459;-82
2023/06/10 08:17:35;;;;;;;;;;;27.50;73.90;;;;;;5073757;28;20064;-82
2023/06/10 08:20:00;;;;;;;;;;;27.60;74.80;;;;;;5074735;28;19925;-83
2023/06/10 08:22:26;;;;;;;;;;;27.70;70.90;;;;;;5074300;28;20399;-83
2023/06/10 08:24:52;;;;;;;;;;;27.80;73.20;;;;;;5072945;28;19931;-82
2023/06/10 08:27:17;;;;;;;;;;;27.70;69.80;;;;;;5074608;28;19931;-83
2023/06/10 08:29:43;;;;;;;;;;;27.80;71.80;;;;;;5074467;28;19978;-83
2023/06/10 08:32:08;;;;;;;;;;;27.90;69.50;;;;;;5074346;28;19925;-83
2023/06/10 08:34:37;;;;;;;;;;;28.00;70.50;;;;;;5056573;28;19928;-83
2023/06/10 08:37:03;;;;;;;;;;;28.20;73.00;;;;;;5074280;28;19928;-83
2023/06/10 08:39:31;;;;;;;;;;;28.30;72.50;;;;;;5074356;28;19924;-84
2023/06/10 08:42:00;;;;;;;;;;;28.40;68.20;;;;;;5074112;28;20390;-84
2023/06/10 08:44:29;;;;;;;;;;;28.20;67.30;;;;;;5072684;28;19924;-82
2023/06/10 08:47:03;;;;;;;;;;;27.90;66.70;;;;;;5073974;28;19932;-83
2023/06/10 08:49:30;;;;;;;;;;;27.70;68.60;;;;;;5074002;28;19939;-83
2023/06/10 08:51:59;;;;;;;;;;;27.70;69.70;;;;;;5074971;28;19931;-83
2023/06/10 08:54:27;;;;;;;;;;;27.70;69.10;;;;;;5074877;28;19928;-83
2023/06/10 08:56:53;;;;;;;;;;;27.80;66.60;;;;;;5073333;28;19939;-83
2023/06/10 08:59:19;;;;;;;;;;;27.70;67.10;;;;;;5073884;28;19929;-82
2023/06/10 09:01:46;;;;;;;;;;;27.70;68.10;;;;;;5072846;28;19929;-86
2023/06/10 09:04:12;;;;;;;;;;;27.70;70.20;;;;;;5073846;28;19931;-85
2023/06/10 09:06:38;;;;;;;;;;;27.70;68.40;;;;;;5073173;28;19925;-83
2023/06/10 09:09:05;;;;;;;;;;;27.70;66.70;;;;;;5073678;28;20015;-82
2023/06/10 09:11:31;;;;;;;;;;;27.90;69.80;;;;;;5074520;28;19924;-83
2023/06/10 09:13:57;;;;;;;;;;;28.10;67.80;;;;;;5074038;28;19924;-85
2023/06/10 09:16:23;;;;;;;;;;;28.10;66.70;;;;;;5056332;28;20019;-83
2023/06/10 09:18:54;;;;;;;;;;;28.00;66.30;;;;;;5073892;28;20363;-83
2023/06/10 09:21:23;;;;;;;;;;;28.20;66.80;;;;;;5074122;28;20019;-84
2023/06/10 09:23:49;;;;;;;;;;;28.30;65.00;;;;;;5055691;28;20371;-83
2023/06/10 09:26:15;;;;;;;;;;;28.60;63.80;;;;;;5073885;28;19936;-82
2023/06/10 09:29:04;;;;;;;;;;;28.80;64.00;;;;;;5073040;28;19924;-84
2023/06/10 09:31:31;;;;;;;;;;;28.90;63.70;;;;;;5062437;28;19979;-82
2023/06/10 09:34:10;;;;;;;;;;;28.80;61.80;;;;;;5072933;28;19932;-82
2023/06/10 09:36:35;;;;;;;;;;;28.90;64.50;;;;;;5072478;28;19925;-82
2023/06/10 09:39:01;;;;;;;;;;;29.00;59.60;;;;;;5073523;28;19924;-83
2023/06/10 09:41:39;;;;;;;;;;;29.00;64.90;;;;;;5073705;28;19932;-85
2023/06/10 09:44:10;;;;;;;;;;;29.00;63.10;;;;;;5055780;28;19936;-83
2023/06/10 09:46:36;;;;;;;;;;;29.00;61.20;;;;;;5072784;28;20388;-83
2023/06/10 09:49:02;;;;;;;;;;;28.90;62.00;;;;;;5073499;28;20010;-83
2023/06/10 09:51:27;;;;;;;;;;;28.80;60.90;;;;;;5074144;28;20366;-82
2023/06/10 09:53:53;;;;;;;;;;;28.70;59.80;;;;;;5071951;28;19931;-84
2023/06/10 09:56:19;;;;;;;;;;;28.80;62.30;;;;;;5072712;28;19928;-82
2023/06/10 09:58:46;;;;;;;;;;;28.80;61.40;;;;;;5073598;28;19935;-81
2023/06/10 10:01:13;;;;;;;;;;;28.90;62.20;;;;;;5072651;28;19967;-83
2023/06/10 10:03:46;;;;;;;;;;;29.10;62.30;;;;;;5071958;28;19999;-81
2023/06/10 10:06:12;;;;;;;;;;;29.30;60.50;;;;;;5073345;28;19976;-82
2023/06/10 10:08:37;;;;;;;;;;;29.30;63.00;;;;;;5073366;28;19924;-83
2023/06/10 10:11:03;;;;;;;;;;;29.40;59.20;;;;;;5077587;28;20368;-82
2023/06/10 10:13:30;;;;;;;;;;;29.50;57.70;;;;;;5076914;28;20360;-82
2023/06/10 10:15:59;;;;;;;;;;;29.50;58.60;;;;;;5076670;28;20355;-82
2023/06/10 10:18:30;;;;;;;;;;;29.60;57.60;;;;;;5077818;28;19928;-83
2023/06/10 10:20:57;;;;;;;;;;;29.70;56.00;;;;;;5076417;28;20023;-82
2023/06/10 10:23:29;;;;;;;;;;;29.60;57.70;;;;;;5076836;28;19925;-83
2023/06/10 10:25:55;;;;;;;;;;;29.50;57.70;;;;;;5076847;28;19978;-82
2023/06/10 10:28:24;;;;;;;;;;;29.70;58.00;;;;;;5077399;28;19925;-83
2023/06/10 10:30:50;;;;;;;;;;;29.80;57.10;;;;;;5059419;28;19925;-81
2023/06/10 10:33:16;;;;;;;;;;;29.80;56.10;;;;;;5076638;28;19925;-81
2023/06/10 10:35:43;;;;;;;;;;;29.90;55.30;;;;;;5076414;28;20375;-81
2023/06/10 10:38:08;;;;;;;;;;;30.00;54.20;;;;;;5076608;28;19924;-84
2023/06/10 10:40:34;;;;;;;;;;;30.00;55.90;;;;;;5058954;28;19987;-83
2023/06/10 10:43:00;;;;;;;;;;;30.10;54.00;;;;;;5076861;28;19968;-85
2023/06/10 10:45:29;;;;;;;;;;;30.30;55.40;;;;;;5076575;28;20371;-83
2023/06/10 10:47:56;;;;;;;;;;;30.40;55.20;;;;;;5076410;28;19982;-84
2023/06/10 10:50:21;;;;;;;;;;;30.50;53.50;;;;;;5076409;28;19928;-82
2023/06/10 10:52:59;;;;;;;;;;;30.50;54.80;;;;;;5074669;28;19924;-82
2023/06/10 10:55:26;;;;;;;;;;;30.40;53.10;;;;;;5076382;28;19936;-83
2023/06/10 10:57:59;;;;;;;;;;;30.50;54.30;;;;;;5075297;28;19928;-85
2023/06/10 11:00:27;;;;;;;;;;;30.50;53.70;;;;;;5078296;28;19929;-84
2023/06/10 11:02:53;;;;;;;;;;;30.50;53.00;;;;;;5080149;28;19924;-82
2023/06/10 11:05:30;;;;;;;;;;;30.40;52.80;;;;;;5076764;28;19935;-83
2023/06/10 11:07:56;;;;;;;;;;;30.30;52.50;;;;;;5076194;28;19963;-83
2023/06/10 11:10:29;;;;;;;;;;;30.30;51.70;;;;;;5075181;28;19925;-83
2023/06/10 11:12:54;;;;;;;;;;;30.20;53.80;;;;;;5076174;28;19972;-83
2023/06/10 11:15:24;;;;;;;;;;;30.20;53.10;;;;;;5076087;28;19968;-82
2023/06/10 11:18:11;;;;;;;;;;;30.20;52.70;;;;;;5074891;28;20011;-83
2023/06/10 11:20:57;;;;;;;;;;;30.20;50.80;;;;;;5076454;28;20337;-83
2023/06/10 11:23:28;;;;;;;;;;;30.20;50.80;;;;;;5078337;28;19972;-83
2023/06/10 11:26:14;;;;;;;;;;;30.10;51.50;;;;;;5079305;28;19924;-83
2023/06/10 11:28:40;;;;;;;;;;;30.20;52.10;;;;;;5059443;28;19925;-83
2023/06/10 11:31:06;;;;;;;;;;;30.40;50.30;;;;;;5075963;28;19970;-83
2023/06/10 11:33:32;;;;;;;;;;;30.40;50.40;;;;;;5076319;28;20275;-83
2023/06/10 11:35:58;;;;;;;;;;;30.50;51.40;;;;;;5076667;28;19925;-82
2023/06/10 11:38:24;;;;;;;;;;;30.50;51.00;;;;;;5058247;28;19971;-82
2023/06/10 11:40:50;;;;;;;;;;;30.50;48.60;;;;;;5074744;28;20371;-83
2023/06/10 11:43:19;;;;;;;;;;;30.60;50.50;;;;;;5075244;28;19974;-83
2023/06/10 11:45:44;;;;;;;;;;;30.50;49.50;;;;;;5075564;28;19925;-84
2023/06/10 11:48:10;;;;;;;;;;;30.60;49.70;;;;;;5075437;28;19931;-83
2023/06/10 11:50:36;;;;;;;;;;;30.60;50.90;;;;;;5074533;28;20003;-83
2023/06/10 11:53:02;;;;;;;;;;;30.60;47.90;;;;;;5075771;28;19924;-83
2023/06/10 11:55:40;;;;;;;;;;;30.60;49.20;;;;;;5075189;28;19947;-86
2023/06/10 11:58:11;;;;;;;;;;;30.50;47.00;;;;;;5057065;28;20039;-83
2023/06/10 12:00:43;;;;;;;;;;;30.50;47.50;;;;;;5075128;28;19924;-83
2023/06/10 12:03:09;;;;;;;;;;;30.60;49.00;;;;;;5075748;28;19924;-83
2023/06/10 12:05:35;;;;;;;;;;;30.60;47.60;;;;;;5075191;28;20426;-83
2023/06/10 12:08:08;;;;;;;;;;;30.70;47.70;;;;;;5075014;28;20237;-83
2023/06/10 12:10:38;;;;;;;;;;;30.70;48.10;;;;;;5075447;28;19978;-85
2023/06/10 12:13:04;;;;;;;;;;;30.70;47.30;;;;;;5074328;28;19928;-83
2023/06/10 12:15:30;;;;;;;;;;;30.70;46.40;;;;;;5074816;28;20256;-84
2023/06/10 12:17:56;;;;;;;;;;;30.80;46.10;;;;;;5075333;28;19928;-84
2023/06/10 12:20:25;;;;;;;;;;;30.80;45.40;;;;;;5073852;28;19925;-83
2023/06/10 12:22:51;;;;;;;;;;;30.80;45.10;;;;;;5074736;28;19954;-83
2023/06/10 12:25:16;;;;;;;;;;;30.70;45.30;;;;;;5073707;28;19924;-82
2023/06/10 12:27:52;;;;;;;;;;;30.70;45.60;;;;;;5074656;28;19925;-83
2023/06/10 12:30:22;;;;;;;;;;;30.70;46.00;;;;;;5074213;28;20336;-82
2023/06/10 12:32:48;;;;;;;;;;;30.70;46.20;;;;;;5073805;28;19924;-83
2023/06/10 12:35:17;;;;;;;;;;;30.70;44.10;;;;;;5074571;28;20286;-84
2023/06/10 12:37:54;;;;;;;;;;;30.70;45.10;;;;;;5073813;28;19924;-82
2023/06/10 12:40:25;;;;;;;;;;;30.90;43.90;;;;;;5074568;28;20371;-83
2023/06/10 12:42:50;;;;;;;;;;;31.00;43.00;;;;;;5074327;28;19925;-83
2023/06/10 12:45:26;;;;;;;;;;;31.00;42.00;;;;;;5073683;28;19987;-84
2023/06/10 12:47:51;;;;;;;;;;;31.10;42.40;;;;;;5057347;28;19925;-83
2023/06/10 12:50:17;;;;;;;;;;;31.20;42.60;;;;;;5073448;28;19932;-83
2023/06/10 12:52:42;;;;;;;;;;;31.20;40.80;;;;;;5074160;28;19924;-83
2023/06/10 12:55:08;;;;;;;;;;;31.00;41.30;;;;;;5074308;28;19931;-85
2023/06/10 12:57:33;;;;;;;;;;;31.10;42.00;;;;;;5074243;28;19947;-83
2023/06/10 13:00:02;;;;;;;;;;;31.20;40.70;;;;;;5074188;28;19924;-82
2023/06/10 13:02:28;;;;;;;;;;;31.10;39.80;;;;;;5073520;28;19924;-83
2023/06/10 13:04:53;;;;;;;;;;;31.10;42.70;;;;;;5072817;28;19931;-83
2023/06/10 13:07:19;;;;;;;;;;;31.00;39.80;;;;;;5073470;28;19932;-83
2023/06/10 13:09:48;;;;;;;;;;;31.00;40.30;;;;;;5072864;28;20325;-85
2023/06/10 13:12:14;;;;;;;;;;;30.90;39.70;;;;;;5073160;28;19931;-82
2023/06/10 13:14:39;;;;;;;;;;;30.70;39.70;;;;;;5073009;28;19924;-83
2023/06/10 13:17:07;;;;;;;;;;;30.80;39.70;;;;;;5074106;28;19935;-84
2023/06/10 13:19:33;;;;;;;;;;;30.90;40.10;;;;;;5072644;28;20330;-82
2023/06/10 13:21:59;;;;;;;;;;;31.10;42.80;;;;;;5073831;28;19924;-82
2023/06/10 13:24:26;;;;;;;;;;;31.30;40.60;;;;;;5073706;28;19928;-83
2023/06/10 13:26:51;;;;;;;;;;;31.40;40.40;;;;;;5072948;28;20016;-82
2023/06/10 13:29:17;;;;;;;;;;;31.40;41.20;;;;;;5073644;28;19968;-81
2023/06/10 13:31:43;;;;;;;;;;;31.50;39.80;;;;;;5074425;28;19971;-84
2023/06/10 13:34:08;;;;;;;;;;;31.60;39.50;;;;;;5073528;28;19929;-83
2023/06/10 13:36:34;;;;;;;;;;;31.60;40.40;;;;;;5072551;28;19925;-83
2023/06/10 13:39:00;;;;;;;;;;;31.60;40.70;;;;;;5073624;28;20372;-84
2023/06/10 13:41:28;;;;;;;;;;;31.50;39.00;;;;;;5073648;28;19939;-83
2023/06/10 13:43:54;;;;;;;;;;;31.40;39.60;;;;;;5074947;28;19925;-83
2023/06/10 13:46:22;;;;;;;;;;;31.40;38.40;;;;;;5077713;28;20260;-83
2023/06/10 13:48:47;;;;;;;;;;;31.20;39.20;;;;;;5076725;28;19991;-83
2023/06/10 13:51:13;;;;;;;;;;;31.20;38.60;;;;;;5077532;28;20359;-83
2023/06/10 13:53:39;;;;;;;;;;;31.20;39.40;;;;;;5077632;28;19970;-83
2023/06/10 13:56:05;;;;;;;;;;;31.20;38.70;;;;;;5077548;28;20466;-83
2023/06/10 13:58:30;;;;;;;;;;;31.10;37.70;;;;;;5077489;28;19971;-83
2023/06/10 14:00:56;;;;;;;;;;;30.90;38.00;;;;;;5076722;28;20241;-83
2023/06/10 14:03:21;;;;;;;;;;;30.90;39.20;;;;;;5076245;28;20007;-83
2023/06/10 14:05:47;;;;;;;;;;;30.90;41.20;;;;;;5077343;28;19939;-82
2023/06/10 14:08:13;;;;;;;;;;;31.00;40.30;;;;;;5077905;28;19924;-82
2023/06/10 14:10:39;;;;;;;;;;;31.00;39.60;;;;;;5075963;28;19960;-82
2023/06/10 14:13:04;;;;;;;;;;;31.00;41.20;;;;;;5077481;28;19928;-83
2023/06/10 14:15:32;;;;;;;;;;;31.10;42.40;;;;;;5076847;28;20082;-83
2023/06/10 14:17:57;;;;;;;;;;;31.00;40.70;;;;;;5077518;28;20027;-82